sensor_id;sensor_type;location;lat;lon;timestamp;P1;durP1;ratioP1;P2;durP2;ratioP2
13683;SDS011;6914;53.552;9.908;2022-12-05T00:00:08;54.83;;;23.57;;
13683;SDS011;6914;53.552;9.908;2022-12-05T00:02:36;43.97;;;22.70;;
13683;SDS011;6914;53.552;9.908;2022-12-05T00:05:03;44.90;;;21.60;;
13683;SDS011;6914;53.552;9.908;2022-12-05T00:07:31;45.77;;;22.90;;
13683;SDS011;6914;53.552;9.908;2022-12-05T00:09:57;39.87;;;20.97;;
13683;SDS011;6914;53.552;9.908;2022-12-05T00:12:25;43.83;;;21.93;;
13683;SDS011;6914;53.552;9.908;2022-12-05T00:14:52;35.67;;;20.00;;
13683;SDS011;6914;53.552;9.908;2022-12-05T00:17:19;44.43;;;20.67;;
13683;SDS011;6914;53.552;9.908;2022-12-05T00:19:46;34.67;;;19.57;;
13683;SDS011;6914;53.552;9.908;2022-12-05T00:22:13;38.83;;;20.13;;
13683;SDS011;6914;53.552;9.908;2022-12-05T00:24:39;41.80;;;22.47;;
13683;SDS011;6914;53.552;9.908;2022-12-05T00:27:07;32.73;;;18.37;;
13683;SDS011;6914;53.552;9.908;2022-12-05T00:29:35;35.47;;;20.80;;
13683;SDS011;6914;53.552;9.908;2022-12-05T00:32:02;44.77;;;21.90;;
13683;SDS011;6914;53.552;9.908;2022-12-05T00:34:29;40.23;;;20.93;;
13683;SDS011;6914;53.552;9.908;2022-12-05T00:36:56;46.53;;;22.40;;
13683;SDS011;6914;53.552;9.908;2022-12-05T00:39:23;34.60;;;20.00;;
13683;SDS011;6914;53.552;9.908;2022-12-05T00:41:49;40.70;;;20.27;;
13683;SDS011;6914;53.552;9.908;2022-12-05T00:44:16;29.87;;;18.40;;
13683;SDS011;6914;53.552;9.908;2022-12-05T00:46:45;32.87;;;18.80;;
13683;SDS011;6914;53.552;9.908;2022-12-05T00:49:12;31.80;;;19.40;;
13683;SDS011;6914;53.552;9.908;2022-12-05T00:51:40;34.23;;;19.70;;
13683;SDS011;6914;53.552;9.908;2022-12-05T00:54:09;31.27;;;20.27;;
13683;SDS011;6914;53.552;9.908;2022-12-05T00:56:37;36.67;;;21.60;;
13683;SDS011;6914;53.552;9.908;2022-12-05T00:59:04;33.10;;;18.73;;
13683;SDS011;6914;53.552;9.908;2022-12-05T01:01:32;35.07;;;19.40;;
13683;SDS011;6914;53.552;9.908;2022-12-05T01:04:03;39.87;;;20.97;;
13683;SDS011;6914;53.552;9.908;2022-12-05T01:06:31;34.73;;;20.73;;
13683;SDS011;6914;53.552;9.908;2022-12-05T01:08:58;32.77;;;19.60;;
13683;SDS011;6914;53.552;9.908;2022-12-05T01:11:26;35.23;;;20.30;;
13683;SDS011;6914;53.552;9.908;2022-12-05T01:13:53;35.07;;;19.63;;
13683;SDS011;6914;53.552;9.908;2022-12-05T01:16:22;33.03;;;19.10;;
13683;SDS011;6914;53.552;9.908;2022-12-05T01:18:50;37.93;;;20.67;;
13683;SDS011;6914;53.552;9.908;2022-12-05T01:21:18;38.50;;;21.63;;
13683;SDS011;6914;53.552;9.908;2022-12-05T01:23:46;29.33;;;18.40;;
13683;SDS011;6914;53.552;9.908;2022-12-05T01:26:14;33.87;;;19.53;;
13683;SDS011;6914;53.552;9.908;2022-12-05T01:28:42;32.87;;;19.40;;
13683;SDS011;6914;53.552;9.908;2022-12-05T01:31:11;34.67;;;19.87;;
13683;SDS011;6914;53.552;9.908;2022-12-05T01:33:43;34.20;;;19.47;;
13683;SDS011;6914;53.552;9.908;2022-12-05T01:36:09;31.47;;;18.40;;
13683;SDS011;6914;53.552;9.908;2022-12-05T01:38:38;35.63;;;18.73;;
13683;SDS011;6914;53.552;9.908;2022-12-05T01:41:07;34.57;;;19.53;;
13683;SDS011;6914;53.552;9.908;2022-12-05T01:46:18;34.80;;;18.53;;
13683;SDS011;6914;53.552;9.908;2022-12-05T01:48:45;28.10;;;17.50;;
13683;SDS011;6914;53.552;9.908;2022-12-05T01:51:13;32.73;;;18.43;;
13683;SDS011;6914;53.552;9.908;2022-12-05T01:53:41;34.80;;;17.13;;
13683;SDS011;6914;53.552;9.908;2022-12-05T01:56:08;29.40;;;17.77;;
13683;SDS011;6914;53.552;9.908;2022-12-05T01:58:36;33.63;;;18.63;;
13683;SDS011;6914;53.552;9.908;2022-12-05T02:01:03;25.77;;;17.77;;
13683;SDS011;6914;53.552;9.908;2022-12-05T02:03:30;32.33;;;18.07;;
13683;SDS011;6914;53.552;9.908;2022-12-05T02:05:57;26.50;;;18.40;;
13683;SDS011;6914;53.552;9.908;2022-12-05T02:08:26;31.73;;;19.47;;
13683;SDS011;6914;53.552;9.908;2022-12-05T02:10:55;28.40;;;17.70;;
13683;SDS011;6914;53.552;9.908;2022-12-05T02:16:18;33.20;;;19.93;;
13683;SDS011;6914;53.552;9.908;2022-12-05T02:18:53;32.80;;;19.60;;
13683;SDS011;6914;53.552;9.908;2022-12-05T02:21:33;28.33;;;17.37;;
13683;SDS011;6914;53.552;9.908;2022-12-05T02:24:27;31.77;;;18.40;;
13683;SDS011;6914;53.552;9.908;2022-12-05T02:30:18;31.00;;;18.03;;
13683;SDS011;6914;53.552;9.908;2022-12-05T02:32:48;34.97;;;19.00;;
13683;SDS011;6914;53.552;9.908;2022-12-05T02:35:29;31.70;;;19.17;;
13683;SDS011;6914;53.552;9.908;2022-12-05T02:38:10;35.37;;;19.60;;
13683;SDS011;6914;53.552;9.908;2022-12-05T02:40:45;35.07;;;20.00;;
13683;SDS011;6914;53.552;9.908;2022-12-05T02:43:21;27.70;;;18.47;;
13683;SDS011;6914;53.552;9.908;2022-12-05T02:45:56;36.23;;;21.30;;
13683;SDS011;6914;53.552;9.908;2022-12-05T02:48:26;30.60;;;19.43;;
13683;SDS011;6914;53.552;9.908;2022-12-05T02:50:54;33.00;;;19.30;;
13683;SDS011;6914;53.552;9.908;2022-12-05T02:53:23;34.50;;;19.73;;
13683;SDS011;6914;53.552;9.908;2022-12-05T02:55:52;36.40;;;20.23;;
13683;SDS011;6914;53.552;9.908;2022-12-05T02:58:22;32.67;;;19.33;;
13683;SDS011;6914;53.552;9.908;2022-12-05T03:00:54;40.13;;;21.93;;
13683;SDS011;6914;53.552;9.908;2022-12-05T03:03:24;34.03;;;21.80;;
13683;SDS011;6914;53.552;9.908;2022-12-05T03:05:54;38.13;;;21.10;;
13683;SDS011;6914;53.552;9.908;2022-12-05T03:08:27;37.30;;;20.97;;
13683;SDS011;6914;53.552;9.908;2022-12-05T03:10:57;31.13;;;18.83;;
13683;SDS011;6914;53.552;9.908;2022-12-05T03:13:31;43.73;;;20.83;;
13683;SDS011;6914;53.552;9.908;2022-12-05T03:16:06;41.07;;;21.70;;
13683;SDS011;6914;53.552;9.908;2022-12-05T03:18:38;41.90;;;21.90;;
13683;SDS011;6914;53.552;9.908;2022-12-05T03:21:10;35.30;;;18.93;;
13683;SDS011;6914;53.552;9.908;2022-12-05T03:23:46;38.57;;;20.13;;
13683;SDS011;6914;53.552;9.908;2022-12-05T03:26:17;39.50;;;21.10;;
13683;SDS011;6914;53.552;9.908;2022-12-05T03:28:58;37.50;;;21.77;;
13683;SDS011;6914;53.552;9.908;2022-12-05T03:31:39;39.93;;;19.80;;
13683;SDS011;6914;53.552;9.908;2022-12-05T03:34:11;36.13;;;21.87;;
13683;SDS011;6914;53.552;9.908;2022-12-05T03:36:43;36.50;;;20.87;;
13683;SDS011;6914;53.552;9.908;2022-12-05T03:39:16;34.83;;;20.17;;
13683;SDS011;6914;53.552;9.908;2022-12-05T03:41:48;37.53;;;19.73;;
13683;SDS011;6914;53.552;9.908;2022-12-05T03:44:25;47.53;;;20.80;;
13683;SDS011;6914;53.552;9.908;2022-12-05T03:46:59;38.87;;;21.43;;
13683;SDS011;6914;53.552;9.908;2022-12-05T03:49:31;31.60;;;21.20;;
13683;SDS011;6914;53.552;9.908;2022-12-05T03:52:03;33.93;;;20.57;;
13683;SDS011;6914;53.552;9.908;2022-12-05T03:54:34;41.30;;;21.37;;
13683;SDS011;6914;53.552;9.908;2022-12-05T03:57:04;38.63;;;20.57;;
13683;SDS011;6914;53.552;9.908;2022-12-05T03:59:38;45.50;;;22.03;;
13683;SDS011;6914;53.552;9.908;2022-12-05T04:02:11;42.07;;;21.83;;
13683;SDS011;6914;53.552;9.908;2022-12-05T04:04:43;39.50;;;22.47;;
13683;SDS011;6914;53.552;9.908;2022-12-05T04:07:13;42.10;;;22.03;;
13683;SDS011;6914;53.552;9.908;2022-12-05T04:09:43;45.23;;;23.10;;
13683;SDS011;6914;53.552;9.908;2022-12-05T04:12:16;41.70;;;21.87;;
13683;SDS011;6914;53.552;9.908;2022-12-05T04:14:51;38.70;;;23.00;;
13683;SDS011;6914;53.552;9.908;2022-12-05T04:17:25;44.60;;;24.00;;
13683;SDS011;6914;53.552;9.908;2022-12-05T04:19:58;41.50;;;23.70;;
13683;SDS011;6914;53.552;9.908;2022-12-05T04:22:46;46.17;;;23.77;;
13683;SDS011;6914;53.552;9.908;2022-12-05T04:25:14;47.57;;;24.40;;
13683;SDS011;6914;53.552;9.908;2022-12-05T04:28:12;44.30;;;24.33;;
13683;SDS011;6914;53.552;9.908;2022-12-05T04:30:47;52.53;;;26.27;;
13683;SDS011;6914;53.552;9.908;2022-12-05T04:33:22;49.90;;;25.13;;
13683;SDS011;6914;53.552;9.908;2022-12-05T04:35:57;49.07;;;23.87;;
13683;SDS011;6914;53.552;9.908;2022-12-05T04:38:28;50.00;;;24.80;;
13683;SDS011;6914;53.552;9.908;2022-12-05T04:41:02;47.60;;;24.03;;
13683;SDS011;6914;53.552;9.908;2022-12-05T04:43:33;49.00;;;26.20;;
13683;SDS011;6914;53.552;9.908;2022-12-05T04:46:03;44.57;;;24.57;;
13683;SDS011;6914;53.552;9.908;2022-12-05T04:48:34;50.40;;;24.10;;
13683;SDS011;6914;53.552;9.908;2022-12-05T04:51:04;56.23;;;25.67;;
13683;SDS011;6914;53.552;9.908;2022-12-05T04:53:34;49.63;;;25.50;;
13683;SDS011;6914;53.552;9.908;2022-12-05T04:56:01;54.10;;;25.67;;
13683;SDS011;6914;53.552;9.908;2022-12-05T04:58:30;48.20;;;23.93;;
13683;SDS011;6914;53.552;9.908;2022-12-05T05:00:58;51.93;;;24.90;;
13683;SDS011;6914;53.552;9.908;2022-12-05T05:03:30;52.77;;;23.90;;
13683;SDS011;6914;53.552;9.908;2022-12-05T05:06:03;49.53;;;23.90;;
13683;SDS011;6914;53.552;9.908;2022-12-05T05:08:30;44.80;;;22.40;;
13683;SDS011;6914;53.552;9.908;2022-12-05T05:11:01;47.80;;;26.33;;
13683;SDS011;6914;53.552;9.908;2022-12-05T05:13:31;43.40;;;23.87;;
13683;SDS011;6914;53.552;9.908;2022-12-05T05:15:58;47.97;;;23.07;;
13683;SDS011;6914;53.552;9.908;2022-12-05T05:18:25;48.70;;;24.73;;
13683;SDS011;6914;53.552;9.908;2022-12-05T05:20:53;58.70;;;24.80;;
13683;SDS011;6914;53.552;9.908;2022-12-05T05:23:19;44.13;;;22.07;;
13683;SDS011;6914;53.552;9.908;2022-12-05T05:25:50;41.10;;;22.00;;
13683;SDS011;6914;53.552;9.908;2022-12-05T05:28:19;51.40;;;23.87;;
13683;SDS011;6914;53.552;9.908;2022-12-05T05:30:46;52.80;;;24.53;;
13683;SDS011;6914;53.552;9.908;2022-12-05T05:33:13;53.83;;;22.97;;
13683;SDS011;6914;53.552;9.908;2022-12-05T05:35:39;50.20;;;23.93;;
13683;SDS011;6914;53.552;9.908;2022-12-05T05:38:07;52.40;;;22.93;;
13683;SDS011;6914;53.552;9.908;2022-12-05T05:40:34;55.87;;;24.33;;
13683;SDS011;6914;53.552;9.908;2022-12-05T05:43:02;46.23;;;23.70;;
13683;SDS011;6914;53.552;9.908;2022-12-05T05:45:28;56.00;;;24.00;;
13683;SDS011;6914;53.552;9.908;2022-12-05T05:47:55;51.23;;;25.60;;
13683;SDS011;6914;53.552;9.908;2022-12-05T05:50:22;55.80;;;24.03;;
13683;SDS011;6914;53.552;9.908;2022-12-05T05:52:49;69.00;;;24.37;;
13683;SDS011;6914;53.552;9.908;2022-12-05T05:55:17;72.13;;;26.53;;
13683;SDS011;6914;53.552;9.908;2022-12-05T05:57:44;67.27;;;27.00;;
13683;SDS011;6914;53.552;9.908;2022-12-05T06:00:11;54.60;;;24.03;;
13683;SDS011;6914;53.552;9.908;2022-12-05T06:02:39;60.63;;;26.57;;
13683;SDS011;6914;53.552;9.908;2022-12-05T06:05:06;62.60;;;26.60;;
13683;SDS011;6914;53.552;9.908;2022-12-05T06:07:33;61.87;;;24.60;;
13683;SDS011;6914;53.552;9.908;2022-12-05T06:10:00;70.23;;;26.93;;
13683;SDS011;6914;53.552;9.908;2022-12-05T06:12:28;65.73;;;26.63;;
13683;SDS011;6914;53.552;9.908;2022-12-05T06:14:55;65.07;;;27.10;;
13683;SDS011;6914;53.552;9.908;2022-12-05T06:17:22;84.70;;;26.90;;
13683;SDS011;6914;53.552;9.908;2022-12-05T06:19:49;64.90;;;27.27;;
13683;SDS011;6914;53.552;9.908;2022-12-05T06:22:16;91.23;;;29.50;;
13683;SDS011;6914;53.552;9.908;2022-12-05T06:24:43;67.73;;;27.30;;
13683;SDS011;6914;53.552;9.908;2022-12-05T06:27:10;70.67;;;30.00;;
13683;SDS011;6914;53.552;9.908;2022-12-05T06:29:38;84.63;;;28.60;;
13683;SDS011;6914;53.552;9.908;2022-12-05T06:32:05;82.37;;;30.37;;
13683;SDS011;6914;53.552;9.908;2022-12-05T06:34:32;71.40;;;28.63;;
13683;SDS011;6914;53.552;9.908;2022-12-05T06:36:59;73.83;;;28.50;;
13683;SDS011;6914;53.552;9.908;2022-12-05T06:39:26;66.80;;;28.90;;
13683;SDS011;6914;53.552;9.908;2022-12-05T06:41:53;90.23;;;30.33;;
13683;SDS011;6914;53.552;9.908;2022-12-05T06:44:20;72.57;;;29.70;;
13683;SDS011;6914;53.552;9.908;2022-12-05T06:46:50;89.53;;;28.10;;
13683;SDS011;6914;53.552;9.908;2022-12-05T06:49:16;79.70;;;28.30;;
13683;SDS011;6914;53.552;9.908;2022-12-05T06:51:43;89.43;;;29.33;;
13683;SDS011;6914;53.552;9.908;2022-12-05T06:54:10;69.93;;;27.83;;
13683;SDS011;6914;53.552;9.908;2022-12-05T06:56:37;96.90;;;30.10;;
13683;SDS011;6914;53.552;9.908;2022-12-05T06:59:03;76.70;;;29.37;;
13683;SDS011;6914;53.552;9.908;2022-12-05T07:01:30;72.17;;;28.63;;
13683;SDS011;6914;53.552;9.908;2022-12-05T07:04:10;76.10;;;29.63;;
13683;SDS011;6914;53.552;9.908;2022-12-05T07:06:39;70.90;;;28.47;;
13683;SDS011;6914;53.552;9.908;2022-12-05T07:09:07;93.40;;;29.63;;
13683;SDS011;6914;53.552;9.908;2022-12-05T07:11:34;72.37;;;27.00;;
13683;SDS011;6914;53.552;9.908;2022-12-05T07:14:02;82.13;;;28.80;;
13683;SDS011;6914;53.552;9.908;2022-12-05T07:16:29;81.70;;;27.23;;
13683;SDS011;6914;53.552;9.908;2022-12-05T07:18:56;81.43;;;27.20;;
13683;SDS011;6914;53.552;9.908;2022-12-05T07:21:24;103.67;;;31.20;;
13683;SDS011;6914;53.552;9.908;2022-12-05T07:23:51;82.90;;;27.90;;
13683;SDS011;6914;53.552;9.908;2022-12-05T07:26:18;86.47;;;27.20;;
13683;SDS011;6914;53.552;9.908;2022-12-05T07:28:46;73.20;;;28.53;;
13683;SDS011;6914;53.552;9.908;2022-12-05T07:31:15;83.03;;;31.13;;
13683;SDS011;6914;53.552;9.908;2022-12-05T07:33:43;90.67;;;28.87;;
13683;SDS011;6914;53.552;9.908;2022-12-05T07:36:11;95.67;;;29.67;;
13683;SDS011;6914;53.552;9.908;2022-12-05T07:38:41;89.63;;;29.60;;
13683;SDS011;6914;53.552;9.908;2022-12-05T07:41:09;96.50;;;30.37;;
13683;SDS011;6914;53.552;9.908;2022-12-05T07:43:39;94.90;;;30.43;;
13683;SDS011;6914;53.552;9.908;2022-12-05T07:46:06;93.03;;;28.87;;
13683;SDS011;6914;53.552;9.908;2022-12-05T07:48:35;92.27;;;32.50;;
13683;SDS011;6914;53.552;9.908;2022-12-05T07:51:02;104.60;;;30.30;;
13683;SDS011;6914;53.552;9.908;2022-12-05T07:53:30;81.50;;;27.83;;
13683;SDS011;6914;53.552;9.908;2022-12-05T07:55:59;85.73;;;29.30;;
13683;SDS011;6914;53.552;9.908;2022-12-05T07:58:27;88.23;;;32.17;;
13683;SDS011;6914;53.552;9.908;2022-12-05T08:00:54;86.77;;;30.10;;
13683;SDS011;6914;53.552;9.908;2022-12-05T08:03:22;74.10;;;27.93;;
13683;SDS011;6914;53.552;9.908;2022-12-05T08:05:48;62.30;;;26.10;;
13683;SDS011;6914;53.552;9.908;2022-12-05T08:08:15;69.93;;;25.83;;
13683;SDS011;6914;53.552;9.908;2022-12-05T08:10:42;72.43;;;27.60;;
13683;SDS011;6914;53.552;9.908;2022-12-05T08:13:10;67.03;;;23.03;;
13683;SDS011;6914;53.552;9.908;2022-12-05T08:15:37;62.17;;;24.23;;
13683;SDS011;6914;53.552;9.908;2022-12-05T08:18:03;59.40;;;24.53;;
13683;SDS011;6914;53.552;9.908;2022-12-05T08:20:30;59.50;;;23.60;;
13683;SDS011;6914;53.552;9.908;2022-12-05T08:22:57;67.93;;;25.93;;
13683;SDS011;6914;53.552;9.908;2022-12-05T08:25:24;70.30;;;25.27;;
13683;SDS011;6914;53.552;9.908;2022-12-05T08:27:51;64.47;;;23.00;;
13683;SDS011;6914;53.552;9.908;2022-12-05T08:30:19;67.13;;;25.40;;
13683;SDS011;6914;53.552;9.908;2022-12-05T08:32:46;61.37;;;23.47;;
13683;SDS011;6914;53.552;9.908;2022-12-05T08:35:12;53.03;;;24.27;;
13683;SDS011;6914;53.552;9.908;2022-12-05T08:37:40;71.80;;;24.17;;
13683;SDS011;6914;53.552;9.908;2022-12-05T08:40:07;69.10;;;23.70;;
13683;SDS011;6914;53.552;9.908;2022-12-05T08:42:34;66.47;;;23.97;;
13683;SDS011;6914;53.552;9.908;2022-12-05T08:45:01;54.90;;;21.73;;
13683;SDS011;6914;53.552;9.908;2022-12-05T08:47:29;60.60;;;22.90;;
13683;SDS011;6914;53.552;9.908;2022-12-05T08:49:56;69.93;;;23.43;;
13683;SDS011;6914;53.552;9.908;2022-12-05T08:52:22;55.93;;;23.10;;
13683;SDS011;6914;53.552;9.908;2022-12-05T08:54:49;55.33;;;23.10;;
13683;SDS011;6914;53.552;9.908;2022-12-05T08:57:16;57.00;;;23.63;;
13683;SDS011;6914;53.552;9.908;2022-12-05T08:59:43;60.97;;;21.37;;
13683;SDS011;6914;53.552;9.908;2022-12-05T09:02:10;56.03;;;23.20;;
13683;SDS011;6914;53.552;9.908;2022-12-05T09:04:38;57.53;;;22.80;;
13683;SDS011;6914;53.552;9.908;2022-12-05T09:07:05;55.63;;;21.33;;
13683;SDS011;6914;53.552;9.908;2022-12-05T09:09:32;63.70;;;22.27;;
13683;SDS011;6914;53.552;9.908;2022-12-05T09:11:59;60.60;;;22.30;;
13683;SDS011;6914;53.552;9.908;2022-12-05T09:14:25;56.50;;;24.03;;
13683;SDS011;6914;53.552;9.908;2022-12-05T09:16:57;70.80;;;25.07;;
13683;SDS011;6914;53.552;9.908;2022-12-05T09:19:25;53.40;;;23.63;;
13683;SDS011;6914;53.552;9.908;2022-12-05T09:21:53;61.23;;;24.00;;
13683;SDS011;6914;53.552;9.908;2022-12-05T09:24:21;87.03;;;26.30;;
13683;SDS011;6914;53.552;9.908;2022-12-05T09:26:48;65.90;;;24.63;;
13683;SDS011;6914;53.552;9.908;2022-12-05T09:29:14;62.90;;;24.07;;
13683;SDS011;6914;53.552;9.908;2022-12-05T09:31:41;55.77;;;24.27;;
13683;SDS011;6914;53.552;9.908;2022-12-05T09:34:09;76.60;;;25.40;;
13683;SDS011;6914;53.552;9.908;2022-12-05T09:36:37;71.33;;;23.13;;
13683;SDS011;6914;53.552;9.908;2022-12-05T09:39:05;63.63;;;23.73;;
13683;SDS011;6914;53.552;9.908;2022-12-05T09:41:43;48.20;;;20.10;;
13683;SDS011;6914;53.552;9.908;2022-12-05T09:44:36;52.33;;;21.43;;
13683;SDS011;6914;53.552;9.908;2022-12-05T09:47:12;52.23;;;19.10;;
13683;SDS011;6914;53.552;9.908;2022-12-05T09:49:46;50.73;;;20.50;;
13683;SDS011;6914;53.552;9.908;2022-12-05T09:52:17;49.27;;;19.57;;
13683;SDS011;6914;53.552;9.908;2022-12-05T09:54:51;36.17;;;18.00;;
13683;SDS011;6914;53.552;9.908;2022-12-05T09:57:19;49.53;;;21.03;;
13683;SDS011;6914;53.552;9.908;2022-12-05T09:59:55;60.90;;;21.03;;
13683;SDS011;6914;53.552;9.908;2022-12-05T10:02:25;66.13;;;21.90;;
13683;SDS011;6914;53.552;9.908;2022-12-05T10:04:59;60.53;;;22.47;;
13683;SDS011;6914;53.552;9.908;2022-12-05T10:07:33;50.77;;;20.27;;
13683;SDS011;6914;53.552;9.908;2022-12-05T10:10:13;51.53;;;19.17;;
13683;SDS011;6914;53.552;9.908;2022-12-05T10:13:05;50.43;;;18.97;;
13683;SDS011;6914;53.552;9.908;2022-12-05T10:15:41;56.47;;;18.40;;
13683;SDS011;6914;53.552;9.908;2022-12-05T10:18:12;41.27;;;16.93;;
13683;SDS011;6914;53.552;9.908;2022-12-05T10:20:49;49.70;;;18.20;;
13683;SDS011;6914;53.552;9.908;2022-12-05T10:23:20;42.73;;;16.97;;
13683;SDS011;6914;53.552;9.908;2022-12-05T10:25:54;35.53;;;17.17;;
13683;SDS011;6914;53.552;9.908;2022-12-05T10:28:26;50.47;;;18.53;;
13683;SDS011;6914;53.552;9.908;2022-12-05T10:30:57;47.53;;;18.63;;
13683;SDS011;6914;53.552;9.908;2022-12-05T10:33:34;40.13;;;17.17;;
13683;SDS011;6914;53.552;9.908;2022-12-05T10:36:08;47.80;;;18.87;;
13683;SDS011;6914;53.552;9.908;2022-12-05T10:38:36;38.63;;;18.27;;
13683;SDS011;6914;53.552;9.908;2022-12-05T10:41:05;46.03;;;18.27;;
13683;SDS011;6914;53.552;9.908;2022-12-05T10:43:35;44.13;;;18.50;;
13683;SDS011;6914;53.552;9.908;2022-12-05T10:46:14;46.23;;;17.20;;
13683;SDS011;6914;53.552;9.908;2022-12-05T10:49:04;44.03;;;19.00;;
13683;SDS011;6914;53.552;9.908;2022-12-05T10:51:35;48.30;;;19.53;;
13683;SDS011;6914;53.552;9.908;2022-12-05T10:54:07;56.50;;;17.70;;
13683;SDS011;6914;53.552;9.908;2022-12-05T10:56:43;60.03;;;19.13;;
13683;SDS011;6914;53.552;9.908;2022-12-05T10:59:13;42.47;;;18.60;;
13683;SDS011;6914;53.552;9.908;2022-12-05T11:01:46;44.27;;;19.60;;
13683;SDS011;6914;53.552;9.908;2022-12-05T11:04:22;45.40;;;18.27;;
13683;SDS011;6914;53.552;9.908;2022-12-05T11:06:52;48.13;;;18.40;;
13683;SDS011;6914;53.552;9.908;2022-12-05T11:09:22;50.20;;;19.70;;
13683;SDS011;6914;53.552;9.908;2022-12-05T11:12:04;49.53;;;18.50;;
13683;SDS011;6914;53.552;9.908;2022-12-05T11:14:39;53.13;;;19.87;;
13683;SDS011;6914;53.552;9.908;2022-12-05T11:17:21;49.03;;;19.53;;
13683;SDS011;6914;53.552;9.908;2022-12-05T11:19:51;48.70;;;18.93;;
13683;SDS011;6914;53.552;9.908;2022-12-05T11:22:17;45.43;;;20.10;;
13683;SDS011;6914;53.552;9.908;2022-12-05T11:24:46;50.43;;;20.77;;
13683;SDS011;6914;53.552;9.908;2022-12-05T11:27:23;46.17;;;20.30;;
13683;SDS011;6914;53.552;9.908;2022-12-05T11:29:53;52.83;;;21.00;;
13683;SDS011;6914;53.552;9.908;2022-12-05T11:32:23;54.70;;;19.73;;
13683;SDS011;6914;53.552;9.908;2022-12-05T11:34:52;38.23;;;18.70;;
13683;SDS011;6914;53.552;9.908;2022-12-05T11:37:25;49.80;;;20.07;;
13683;SDS011;6914;53.552;9.908;2022-12-05T11:39:56;44.23;;;18.93;;
13683;SDS011;6914;53.552;9.908;2022-12-05T11:42:28;40.03;;;19.03;;
13683;SDS011;6914;53.552;9.908;2022-12-05T11:45:14;43.60;;;18.90;;
13683;SDS011;6914;53.552;9.908;2022-12-05T11:47:58;38.03;;;19.20;;
13683;SDS011;6914;53.552;9.908;2022-12-05T11:50:41;38.97;;;17.73;;
13683;SDS011;6914;53.552;9.908;2022-12-05T11:53:20;39.27;;;18.13;;
13683;SDS011;6914;53.552;9.908;2022-12-05T11:56:06;40.17;;;18.23;;
13683;SDS011;6914;53.552;9.908;2022-12-05T11:58:55;34.70;;;17.40;;
13683;SDS011;6914;53.552;9.908;2022-12-05T12:01:35;39.90;;;17.73;;
13683;SDS011;6914;53.552;9.908;2022-12-05T12:04:17;49.50;;;18.90;;
13683;SDS011;6914;53.552;9.908;2022-12-05T12:07:03;42.33;;;18.60;;
13683;SDS011;6914;53.552;9.908;2022-12-05T12:09:52;35.00;;;17.60;;
13683;SDS011;6914;53.552;9.908;2022-12-05T12:12:27;34.10;;;18.10;;
13683;SDS011;6914;53.552;9.908;2022-12-05T12:15:06;48.10;;;18.87;;
13683;SDS011;6914;53.552;9.908;2022-12-05T12:17:53;32.90;;;18.00;;
13683;SDS011;6914;53.552;9.908;2022-12-05T12:20:29;37.70;;;17.53;;
13683;SDS011;6914;53.552;9.908;2022-12-05T12:23:08;45.53;;;19.50;;
13683;SDS011;6914;53.552;9.908;2022-12-05T12:25:48;35.70;;;17.27;;
13683;SDS011;6914;53.552;9.908;2022-12-05T12:28:27;35.17;;;17.57;;
13683;SDS011;6914;53.552;9.908;2022-12-05T12:31:12;39.73;;;17.57;;
13683;SDS011;6914;53.552;9.908;2022-12-05T12:33:53;31.00;;;17.53;;
13683;SDS011;6914;53.552;9.908;2022-12-05T12:36:30;36.27;;;17.17;;
13683;SDS011;6914;53.552;9.908;2022-12-05T12:39:09;31.23;;;15.77;;
13683;SDS011;6914;53.552;9.908;2022-12-05T12:42:11;34.37;;;17.30;;
13683;SDS011;6914;53.552;9.908;2022-12-05T12:51:03;29.73;;;16.60;;
13683;SDS011;6914;53.552;9.908;2022-12-05T12:54:11;26.23;;;15.60;;
13683;SDS011;6914;53.552;9.908;2022-12-05T12:57:01;30.43;;;16.13;;
13683;SDS011;6914;53.552;9.908;2022-12-05T12:59:39;28.37;;;14.40;;
13683;SDS011;6914;53.552;9.908;2022-12-05T13:02:30;37.73;;;15.93;;
13683;SDS011;6914;53.552;9.908;2022-12-05T13:08:11;31.90;;;15.20;;
13683;SDS011;6914;53.552;9.908;2022-12-05T13:10:44;25.17;;;14.30;;
13683;SDS011;6914;53.552;9.908;2022-12-05T13:13:25;28.27;;;15.10;;
13683;SDS011;6914;53.552;9.908;2022-12-05T13:16:09;24.67;;;15.93;;
13683;SDS011;6914;53.552;9.908;2022-12-05T13:18:43;32.93;;;15.37;;
13683;SDS011;6914;53.552;9.908;2022-12-05T13:21:19;28.80;;;15.67;;
13683;SDS011;6914;53.552;9.908;2022-12-05T13:26:38;22.80;;;14.37;;
13683;SDS011;6914;53.552;9.908;2022-12-05T13:29:18;30.53;;;15.80;;
13683;SDS011;6914;53.552;9.908;2022-12-05T13:31:57;29.03;;;14.20;;
13683;SDS011;6914;53.552;9.908;2022-12-05T13:34:42;34.30;;;16.53;;
13683;SDS011;6914;53.552;9.908;2022-12-05T13:37:22;28.27;;;14.47;;
13683;SDS011;6914;53.552;9.908;2022-12-05T13:40:25;18.77;;;13.00;;
13683;SDS011;6914;53.552;9.908;2022-12-05T13:43:32;27.07;;;16.13;;
13683;SDS011;6914;53.552;9.908;2022-12-05T13:46:17;36.10;;;16.03;;
13683;SDS011;6914;53.552;9.908;2022-12-05T13:48:59;25.23;;;14.50;;
13683;SDS011;6914;53.552;9.908;2022-12-05T13:51:38;31.60;;;15.13;;
13683;SDS011;6914;53.552;9.908;2022-12-05T13:54:16;24.17;;;15.40;;
13683;SDS011;6914;53.552;9.908;2022-12-05T13:56:48;22.40;;;14.13;;
13683;SDS011;6914;53.552;9.908;2022-12-05T14:02:50;21.33;;;13.70;;
13683;SDS011;6914;53.552;9.908;2022-12-05T14:05:39;20.17;;;13.00;;
13683;SDS011;6914;53.552;9.908;2022-12-05T14:11:20;25.53;;;14.10;;
13683;SDS011;6914;53.552;9.908;2022-12-05T14:13:58;24.00;;;13.20;;
13683;SDS011;6914;53.552;9.908;2022-12-05T14:25:34;27.97;;;13.37;;
13683;SDS011;6914;53.552;9.908;2022-12-05T14:28:23;23.67;;;14.70;;
13683;SDS011;6914;53.552;9.908;2022-12-05T14:31:07;24.07;;;14.10;;
13683;SDS011;6914;53.552;9.908;2022-12-05T14:33:45;25.27;;;14.07;;
13683;SDS011;6914;53.552;9.908;2022-12-05T14:36:30;24.13;;;13.83;;
13683;SDS011;6914;53.552;9.908;2022-12-05T14:38:57;19.03;;;11.93;;
13683;SDS011;6914;53.552;9.908;2022-12-05T14:41:25;23.50;;;14.00;;
13683;SDS011;6914;53.552;9.908;2022-12-05T14:43:59;22.80;;;14.30;;
13683;SDS011;6914;53.552;9.908;2022-12-05T14:46:28;20.80;;;12.33;;
13683;SDS011;6914;53.552;9.908;2022-12-05T14:48:57;17.07;;;12.77;;
13683;SDS011;6914;53.552;9.908;2022-12-05T14:52:07;26.03;;;13.80;;
13683;SDS011;6914;53.552;9.908;2022-12-05T14:54:47;22.87;;;13.87;;
13683;SDS011;6914;53.552;9.908;2022-12-05T14:57:18;21.60;;;12.47;;
13683;SDS011;6914;53.552;9.908;2022-12-05T14:59:50;23.40;;;12.83;;
13683;SDS011;6914;53.552;9.908;2022-12-05T15:02:22;21.30;;;12.70;;
13683;SDS011;6914;53.552;9.908;2022-12-05T15:04:54;27.33;;;13.60;;
13683;SDS011;6914;53.552;9.908;2022-12-05T15:07:28;18.53;;;11.60;;
13683;SDS011;6914;53.552;9.908;2022-12-05T15:09:59;23.43;;;12.83;;
13683;SDS011;6914;53.552;9.908;2022-12-05T15:12:31;16.33;;;12.33;;
13683;SDS011;6914;53.552;9.908;2022-12-05T15:15:07;19.80;;;13.30;;
13683;SDS011;6914;53.552;9.908;2022-12-05T15:17:43;18.63;;;12.30;;
13683;SDS011;6914;53.552;9.908;2022-12-05T15:20:26;20.37;;;12.80;;
13683;SDS011;6914;53.552;9.908;2022-12-05T15:23:00;16.80;;;11.80;;
13683;SDS011;6914;53.552;9.908;2022-12-05T15:25:31;12.63;;;9.43;;
13683;SDS011;6914;53.552;9.908;2022-12-05T15:31:35;19.80;;;11.30;;
13683;SDS011;6914;53.552;9.908;2022-12-05T15:34:22;17.87;;;10.97;;
13683;SDS011;6914;53.552;9.908;2022-12-05T15:37:00;21.77;;;11.30;;
13683;SDS011;6914;53.552;9.908;2022-12-05T15:39:49;14.90;;;9.93;;
13683;SDS011;6914;53.552;9.908;2022-12-05T15:42:18;13.10;;;9.60;;